sensor_id;sensor_type;location;lat;lon;timestamp;temperature;humidity
25328;DHT22;13279;51.300;12.394;2022-07-11T03:17:27;11.40;99.90
25328;DHT22;13279;51.300;12.394;2022-07-11T03:19:55;11.40;99.90
25328;DHT22;13279;51.300;12.394;2022-07-11T03:22:23;11.30;99.90
25328;DHT22;13279;51.300;12.394;2022-07-11T03:24:50;11.30;99.90
25328;DHT22;13279;51.300;12.394;2022-07-11T03:27:18;11.30;99.90
25328;DHT22;13279;51.300;12.394;2022-07-11T03:29:47;11.40;99.90
25328;DHT22;13279;51.300;12.394;2022-07-11T03:32:15;11.30;99.90
25328;DHT22;13279;51.300;12.394;2022-07-11T03:34:47;11.30;99.90
25328;DHT22;13279;51.300;12.394;2022-07-11T03:37:29;11.30;99.90
25328;DHT22;13279;51.300;12.394;2022-07-11T03:39:56;11.30;99.90
25328;DHT22;13279;51.300;12.394;2022-07-11T03:42:24;11.40;99.90
25328;DHT22;13279;51.300;12.394;2022-07-11T03:44:52;11.40;99.90
25328;DHT22;13279;51.300;12.394;2022-07-11T03:47:19;11.50;99.90
25328;DHT22;13279;51.300;12.394;2022-07-11T03:49:48;11.60;99.90
25328;DHT22;13279;51.300;12.394;2022-07-11T03:52:15;11.60;99.90
25328;DHT22;13279;51.300;12.394;2022-07-11T03:54:43;11.70;99.90
25328;DHT22;13279;51.300;12.394;2022-07-11T03:57:11;11.70;99.90
25328;DHT22;13279;51.300;12.394;2022-07-11T03:59:38;11.80;99.90
25328;DHT22;13279;51.300;12.394;2022-07-11T04:02:06;11.80;99.90
25328;DHT22;13279;51.300;12.394;2022-07-11T04:04:33;11.80;99.90
25328;DHT22;13279;51.300;12.394;2022-07-11T04:07:03;11.80;99.90
25328;DHT22;13279;51.300;12.394;2022-07-11T04:09:31;11.90;99.90
25328;DHT22;13279;51.300;12.394;2022-07-11T04:11:59;11.90;99.90
25328;DHT22;13279;51.300;12.394;2022-07-11T04:14:26;11.90;99.90
25328;DHT22;13279;51.300;12.394;2022-07-11T04:16:53;11.90;99.90
25328;DHT22;13279;51.300;12.394;2022-07-11T04:19:21;11.90;99.90
25328;DHT22;13279;51.300;12.394;2022-07-11T04:21:49;12.00;99.90
25328;DHT22;13279;51.300;12.394;2022-07-11T04:24:18;11.90;99.90
25328;DHT22;13279;51.300;12.394;2022-07-11T04:26:46;11.90;99.90
25328;DHT22;13279;51.300;12.394;2022-07-11T04:29:13;12.00;99.90
25328;DHT22;13279;51.300;12.394;2022-07-11T04:31:41;12.00;99.90
25328;DHT22;13279;51.300;12.394;2022-07-11T04:34:08;12.00;99.90
25328;DHT22;13279;51.300;12.394;2022-07-11T04:36:36;12.10;99.90
25328;DHT22;13279;51.300;12.394;2022-07-11T04:39:04;12.10;99.90
25328;DHT22;13279;51.300;12.394;2022-07-11T04:41:33;12.10;99.90
25328;DHT22;13279;51.300;12.394;2022-07-11T04:44:01;12.10;99.90
25328;DHT22;13279;51.300;12.394;2022-07-11T04:46:29;12.20;99.90
25328;DHT22;13279;51.300;12.394;2022-07-11T04:48:58;12.30;99.90
25328;DHT22;13279;51.300;12.394;2022-07-11T04:51:30;12.40;99.90
25328;DHT22;13279;51.300;12.394;2022-07-11T04:54:05;12.40;99.90
25328;DHT22;13279;51.300;12.394;2022-07-11T04:56:40;12.50;99.90
25328;DHT22;13279;51.300;12.394;2022-07-11T04:59:09;12.50;99.90
25328;DHT22;13279;51.300;12.394;2022-07-11T05:01:38;12.60;99.90
25328;DHT22;13279;51.300;12.394;2022-07-11T05:04:07;12.70;99.90
25328;DHT22;13279;51.300;12.394;2022-07-11T05:06:36;12.80;99.90
25328;DHT22;13279;51.300;12.394;2022-07-11T05:09:06;12.80;99.90
25328;DHT22;13279;51.300;12.394;2022-07-11T05:11:44;12.90;99.90
25328;DHT22;13279;51.300;12.394;2022-07-11T05:14:13;12.90;99.90
25328;DHT22;13279;51.300;12.394;2022-07-11T05:16:42;13.10;99.90
25328;DHT22;13279;51.300;12.394;2022-07-11T05:19:12;13.20;99.90
25328;DHT22;13279;51.300;12.394;2022-07-11T05:21:40;13.30;99.90
25328;DHT22;13279;51.300;12.394;2022-07-11T05:24:11;13.40;99.90
25328;DHT22;13279;51.300;12.394;2022-07-11T05:26:48;13.50;99.90
25328;DHT22;13279;51.300;12.394;2022-07-11T05:29:17;13.60;99.90
25328;DHT22;13279;51.300;12.394;2022-07-11T05:31:45;13.50;99.90
25328;DHT22;13279;51.300;12.394;2022-07-11T05:34:17;13.80;99.90
25328;DHT22;13279;51.300;12.394;2022-07-11T05:36:47;13.80;99.90
25328;DHT22;13279;51.300;12.394;2022-07-11T05:39:18;13.90;99.90
25328;DHT22;13279;51.300;12.394;2022-07-11T05:41:51;14.10;99.90
25328;DHT22;13279;51.300;12.394;2022-07-11T05:44:20;14.20;99.90
25328;DHT22;13279;51.300;12.394;2022-07-11T05:46:49;14.30;99.90
25328;DHT22;13279;51.300;12.394;2022-07-11T05:49:17;14.40;99.90
25328;DHT22;13279;51.300;12.394;2022-07-11T05:51:46;14.50;99.90
25328;DHT22;13279;51.300;12.394;2022-07-11T05:54:17;14.60;99.90
25328;DHT22;13279;51.300;12.394;2022-07-11T05:56:45;14.70;99.90
25328;DHT22;13279;51.300;12.394;2022-07-11T05:59:14;14.80;99.90
25328;DHT22;13279;51.300;12.394;2022-07-11T06:01:41;14.80;99.90
25328;DHT22;13279;51.300;12.394;2022-07-11T06:04:09;15.00;99.90
25328;DHT22;13279;51.300;12.394;2022-07-11T06:06:37;15.10;99.90
25328;DHT22;13279;51.300;12.394;2022-07-11T06:09:05;15.10;99.90
25328;DHT22;13279;51.300;12.394;2022-07-11T06:11:32;15.20;99.90
25328;DHT22;13279;51.300;12.394;2022-07-11T06:14:01;15.40;99.90
25328;DHT22;13279;51.300;12.394;2022-07-11T06:16:33;15.40;99.90
25328;DHT22;13279;51.300;12.394;2022-07-11T06:19:01;15.40;99.90
25328;DHT22;13279;51.300;12.394;2022-07-11T06:21:29;15.50;99.90
25328;DHT22;13279;51.300;12.394;2022-07-11T06:23:56;15.60;99.90
25328;DHT22;13279;51.300;12.394;2022-07-11T06:26:24;15.60;99.90
25328;DHT22;13279;51.300;12.394;2022-07-11T06:28:52;15.70;99.90
25328;DHT22;13279;51.300;12.394;2022-07-11T06:31:19;15.80;99.90
25328;DHT22;13279;51.300;12.394;2022-07-11T06:33:48;16.00;99.90
25328;DHT22;13279;51.300;12.394;2022-07-11T06:36:20;16.10;99.90
25328;DHT22;13279;51.300;12.394;2022-07-11T06:38:49;16.20;99.90
25328;DHT22;13279;51.300;12.394;2022-07-11T06:41:16;16.20;99.90
25328;DHT22;13279;51.300;12.394;2022-07-11T06:43:44;16.30;99.90
25328;DHT22;13279;51.300;12.394;2022-07-11T06:46:13;16.50;99.90
25328;DHT22;13279;51.300;12.394;2022-07-11T06:48:41;16.50;99.90
25328;DHT22;13279;51.300;12.394;2022-07-11T06:51:10;16.40;99.90
25328;DHT22;13279;51.300;12.394;2022-07-11T06:53:38;16.50;99.90
25328;DHT22;13279;51.300;12.394;2022-07-11T06:56:05;16.40;99.90
25328;DHT22;13279;51.300;12.394;2022-07-11T06:58:33;16.30;99.90
25328;DHT22;13279;51.300;12.394;2022-07-11T07:01:02;16.40;99.90
25328;DHT22;13279;51.300;12.394;2022-07-11T07:03:30;16.70;99.90
25328;DHT22;13279;51.300;12.394;2022-07-11T07:05:58;16.90;99.90
25328;DHT22;13279;51.300;12.394;2022-07-11T07:08:29;17.10;99.90
25328;DHT22;13279;51.300;12.394;2022-07-11T07:10:57;17.20;99.90
25328;DHT22;13279;51.300;12.394;2022-07-11T07:13:24;17.50;99.90
25328;DHT22;13279;51.300;12.394;2022-07-11T07:15:55;17.90;99.90
25328;DHT22;13279;51.300;12.394;2022-07-11T07:18:23;18.10;99.90
25328;DHT22;13279;51.300;12.394;2022-07-11T07:20:51;18.20;99.90
25328;DHT22;13279;51.300;12.394;2022-07-11T07:23:19;18.20;99.90
25328;DHT22;13279;51.300;12.394;2022-07-11T07:25:48;17.80;99.90
25328;DHT22;13279;51.300;12.394;2022-07-11T07:28:16;17.60;99.90
25328;DHT22;13279;51.300;12.394;2022-07-11T07:30:44;17.40;99.90
25328;DHT22;13279;51.300;12.394;2022-07-11T07:33:13;17.20;99.90
25328;DHT22;13279;51.300;12.394;2022-07-11T07:35:40;16.80;99.90
25328;DHT22;13279;51.300;12.394;2022-07-11T07:38:08;16.70;99.90
25328;DHT22;13279;51.300;12.394;2022-07-11T07:40:35;16.70;99.90
25328;DHT22;13279;51.300;12.394;2022-07-11T07:43:04;16.90;99.90
25328;DHT22;13279;51.300;12.394;2022-07-11T07:45:32;16.90;99.90
25328;DHT22;13279;51.300;12.394;2022-07-11T07:48:00;17.10;99.90
25328;DHT22;13279;51.300;12.394;2022-07-11T07:50:28;17.30;99.90
25328;DHT22;13279;51.300;12.394;2022-07-11T07:52:56;17.80;99.90
25328;DHT22;13279;51.300;12.394;2022-07-11T07:55:23;18.10;99.90
25328;DHT22;13279;51.300;12.394;2022-07-11T07:57:52;18.00;99.90
25328;DHT22;13279;51.300;12.394;2022-07-11T08:00:22;17.60;99.90
25328;DHT22;13279;51.300;12.394;2022-07-11T08:03:08;17.70;99.90
25328;DHT22;13279;51.300;12.394;2022-07-11T08:05:36;17.90;99.90
25328;DHT22;13279;51.300;12.394;2022-07-11T08:08:07;18.20;99.90
25328;DHT22;13279;51.300;12.394;2022-07-11T08:10:36;18.30;99.90
25328;DHT22;13279;51.300;12.394;2022-07-11T08:13:05;18.20;99.90
25328;DHT22;13279;51.300;12.394;2022-07-11T08:15:34;18.30;99.90
25328;DHT22;13279;51.300;12.394;2022-07-11T08:18:02;18.60;99.90
25328;DHT22;13279;51.300;12.394;2022-07-11T08:20:30;18.80;99.90
25328;DHT22;13279;51.300;12.394;2022-07-11T08:22:59;18.90;99.90
25328;DHT22;13279;51.300;12.394;2022-07-11T08:25:28;19.20;99.90
25328;DHT22;13279;51.300;12.394;2022-07-11T08:27:56;19.50;99.90
25328;DHT22;13279;51.300;12.394;2022-07-11T08:30:24;19.60;99.90
25328;DHT22;13279;51.300;12.394;2022-07-11T08:32:53;19.50;99.90
25328;DHT22;13279;51.300;12.394;2022-07-11T08:35:20;19.70;99.90
25328;DHT22;13279;51.300;12.394;2022-07-11T08:37:48;19.70;99.90
25328;DHT22;13279;51.300;12.394;2022-07-11T08:40:16;19.80;99.90
25328;DHT22;13279;51.300;12.394;2022-07-11T08:42:44;19.70;99.90
25328;DHT22;13279;51.300;12.394;2022-07-11T08:45:13;19.30;99.90
25328;DHT22;13279;51.300;12.394;2022-07-11T08:47:42;18.90;99.90
25328;DHT22;13279;51.300;12.394;2022-07-11T08:50:12;18.50;99.90
25328;DHT22;13279;51.300;12.394;2022-07-11T08:52:40;18.30;99.90
25328;DHT22;13279;51.300;12.394;2022-07-11T08:55:08;18.20;99.90
25328;DHT22;13279;51.300;12.394;2022-07-11T08:57:36;18.40;99.90
25328;DHT22;13279;51.300;12.394;2022-07-11T09:00:08;18.70;99.90
25328;DHT22;13279;51.300;12.394;2022-07-11T09:02:36;19.10;99.90
25328;DHT22;13279;51.300;12.394;2022-07-11T09:05:04;19.50;99.90
25328;DHT22;13279;51.300;12.394;2022-07-11T09:07:42;19.90;99.90
25328;DHT22;13279;51.300;12.394;2022-07-11T09:10:10;20.20;99.90
25328;DHT22;13279;51.300;12.394;2022-07-11T09:12:38;20.30;99.90
25328;DHT22;13279;51.300;12.394;2022-07-11T09:15:06;20.40;99.90
25328;DHT22;13279;51.300;12.394;2022-07-11T09:17:34;19.90;99.90
25328;DHT22;13279;51.300;12.394;2022-07-11T09:20:02;19.50;99.90
25328;DHT22;13279;51.300;12.394;2022-07-11T09:22:30;19.20;99.90
25328;DHT22;13279;51.300;12.394;2022-07-11T09:25:19;19.40;99.90
25328;DHT22;13279;51.300;12.394;2022-07-11T09:28:00;19.70;99.90
25328;DHT22;13279;51.300;12.394;2022-07-11T09:30:31;20.00;99.90
25328;DHT22;13279;51.300;12.394;2022-07-11T09:33:03;20.50;99.90
25328;DHT22;13279;51.300;12.394;2022-07-11T09:35:33;20.90;99.90
25328;DHT22;13279;51.300;12.394;2022-07-11T09:38:03;21.20;99.90
25328;DHT22;13279;51.300;12.394;2022-07-11T09:40:35;21.00;99.90
25328;DHT22;13279;51.300;12.394;2022-07-11T09:43:04;20.80;99.90
25328;DHT22;13279;51.300;12.394;2022-07-11T09:45:33;20.60;99.90
25328;DHT22;13279;51.300;12.394;2022-07-11T09:48:07;20.50;99.90
25328;DHT22;13279;51.300;12.394;2022-07-11T09:50:36;20.40;99.90
25328;DHT22;13279;51.300;12.394;2022-07-11T09:53:07;20.50;99.90
25328;DHT22;13279;51.300;12.394;2022-07-11T09:55:38;20.40;99.90
25328;DHT22;13279;51.300;12.394;2022-07-11T09:58:07;20.40;99.90
25328;DHT22;13279;51.300;12.394;2022-07-11T10:00:35;20.50;99.90
25328;DHT22;13279;51.300;12.394;2022-07-11T10:03:04;20.30;99.90
25328;DHT22;13279;51.300;12.394;2022-07-11T10:05:33;20.00;99.90
25328;DHT22;13279;51.300;12.394;2022-07-11T10:08:03;20.00;99.90
25328;DHT22;13279;51.300;12.394;2022-07-11T10:10:31;20.10;99.90
25328;DHT22;13279;51.300;12.394;2022-07-11T10:13:00;19.90;99.90
25328;DHT22;13279;51.300;12.394;2022-07-11T10:15:31;19.90;99.90
25328;DHT22;13279;51.300;12.394;2022-07-11T10:18:07;19.80;99.90
25328;DHT22;13279;51.300;12.394;2022-07-11T10:20:41;19.90;99.90
25328;DHT22;13279;51.300;12.394;2022-07-11T10:23:18;20.40;99.90
25328;DHT22;13279;51.300;12.394;2022-07-11T10:25:52;20.50;99.90
25328;DHT22;13279;51.300;12.394;2022-07-11T10:28:27;20.40;99.90
25328;DHT22;13279;51.300;12.394;2022-07-11T10:30:57;20.20;99.90
25328;DHT22;13279;51.300;12.394;2022-07-11T10:33:27;20.20;99.90
25328;DHT22;13279;51.300;12.394;2022-07-11T10:35:55;20.10;99.90
25328;DHT22;13279;51.300;12.394;2022-07-11T10:38:23;20.30;99.90
25328;DHT22;13279;51.300;12.394;2022-07-11T10:40:52;20.60;99.90
25328;DHT22;13279;51.300;12.394;2022-07-11T10:43:39;20.80;99.90
25328;DHT22;13279;51.300;12.394;2022-07-11T10:46:09;21.00;99.90
25328;DHT22;13279;51.300;12.394;2022-07-11T10:48:55;21.10;99.90
25328;DHT22;13279;51.300;12.394;2022-07-11T10:51:33;20.90;99.90
25328;DHT22;13279;51.300;12.394;2022-07-11T10:54:23;21.10;99.90
25328;DHT22;13279;51.300;12.394;2022-07-11T10:57:04;21.50;99.90
25328;DHT22;13279;51.300;12.394;2022-07-11T10:59:55;22.00;99.90
25328;DHT22;13279;51.300;12.394;2022-07-11T11:02:23;22.00;99.90
25328;DHT22;13279;51.300;12.394;2022-07-11T11:04:52;21.70;99.90
25328;DHT22;13279;51.300;12.394;2022-07-11T11:07:38;22.00;99.90
25328;DHT22;13279;51.300;12.394;2022-07-11T11:13:09;22.60;99.90
25328;DHT22;13279;51.300;12.394;2022-07-11T11:15:42;22.20;99.90
25328;DHT22;13279;51.300;12.394;2022-07-11T11:18:31;21.90;99.90
25328;DHT22;13279;51.300;12.394;2022-07-11T11:21:17;22.10;99.90
25328;DHT22;13279;51.300;12.394;2022-07-11T11:24:00;22.40;99.90
25328;DHT22;13279;51.300;12.394;2022-07-11T11:26:46;22.40;99.90
25328;DHT22;13279;51.300;12.394;2022-07-11T11:29:22;22.60;99.90
25328;DHT22;13279;51.300;12.394;2022-07-11T11:31:52;22.50;99.90
25328;DHT22;13279;51.300;12.394;2022-07-11T11:34:20;22.10;99.90
25328;DHT22;13279;51.300;12.394;2022-07-11T11:36:56;21.80;99.90
25328;DHT22;13279;51.300;12.394;2022-07-11T11:39:29;21.70;99.90
25328;DHT22;13279;51.300;12.394;2022-07-11T11:42:08;21.70;99.90
25328;DHT22;13279;51.300;12.394;2022-07-11T11:44:57;22.00;99.90
25328;DHT22;13279;51.300;12.394;2022-07-11T11:47:30;22.50;99.90
25328;DHT22;13279;51.300;12.394;2022-07-11T11:49:58;22.80;99.90
25328;DHT22;13279;51.300;12.394;2022-07-11T11:52:27;23.00;99.90
25328;DHT22;13279;51.300;12.394;2022-07-11T11:54:56;23.10;99.90
25328;DHT22;13279;51.300;12.394;2022-07-11T11:57:27;23.40;99.90
25328;DHT22;13279;51.300;12.394;2022-07-11T11:59:54;23.60;99.90
25328;DHT22;13279;51.300;12.394;2022-07-11T12:02:24;23.70;99.90
25328;DHT22;13279;51.300;12.394;2022-07-11T12:04:53;24.00;99.90
25328;DHT22;13279;51.300;12.394;2022-07-11T12:07:25;24.30;99.90
25328;DHT22;13279;51.300;12.394;2022-07-11T12:09:54;24.20;99.90
25328;DHT22;13279;51.300;12.394;2022-07-11T12:12:27;24.00;99.90
25328;DHT22;13279;51.300;12.394;2022-07-11T12:15:29;23.50;99.90
25328;DHT22;13279;51.300;12.394;2022-07-11T12:17:59;23.40;99.90
25328;DHT22;13279;51.300;12.394;2022-07-11T12:20:36;23.50;99.90
25328;DHT22;13279;51.300;12.394;2022-07-11T12:23:05;23.40;99.90
25328;DHT22;13279;51.300;12.394;2022-07-11T12:25:32;23.50;99.90
25328;DHT22;13279;51.300;12.394;2022-07-11T12:28:00;23.60;99.90
25328;DHT22;13279;51.300;12.394;2022-07-11T12:30:28;24.00;99.80
25328;DHT22;13279;51.300;12.394;2022-07-11T12:33:05;23.80;98.90
25328;DHT22;13279;51.300;12.394;2022-07-11T12:35:35;23.50;99.90
25328;DHT22;13279;51.300;12.394;2022-07-11T12:38:02;23.40;99.90
25328;DHT22;13279;51.300;12.394;2022-07-11T12:40:30;23.30;99.80
25328;DHT22;13279;51.300;12.394;2022-07-11T12:42:57;23.60;99.60
25328;DHT22;13279;51.300;12.394;2022-07-11T12:45:25;23.90;99.50
25328;DHT22;13279;51.300;12.394;2022-07-11T12:47:51;24.10;98.50
25328;DHT22;13279;51.300;12.394;2022-07-11T12:50:23;24.10;98.70
25328;DHT22;13279;51.300;12.394;2022-07-11T12:52:54;24.10;98.80
25328;DHT22;13279;51.300;12.394;2022-07-11T12:55:23;24.00;97.60
25328;DHT22;13279;51.300;12.394;2022-07-11T12:58:04;24.20;97.40
25328;DHT22;13279;51.300;12.394;2022-07-11T13:00:33;24.50;97.50
25328;DHT22;13279;51.300;12.394;2022-07-11T13:03:02;25.00;96.30
25328;DHT22;13279;51.300;12.394;2022-07-11T13:05:45;25.50;94.20
25328;DHT22;13279;51.300;12.394;2022-07-11T13:08:24;25.90;93.40
25328;DHT22;13279;51.300;12.394;2022-07-11T13:11:12;25.70;93.10
25328;DHT22;13279;51.300;12.394;2022-07-11T13:13:40;25.90;92.70
25328;DHT22;13279;51.300;12.394;2022-07-11T13:16:08;25.80;91.40
25328;DHT22;13279;51.300;12.394;2022-07-11T13:18:35;25.50;92.10
25328;DHT22;13279;51.300;12.394;2022-07-11T13:21:03;25.40;93.30
25328;DHT22;13279;51.300;12.394;2022-07-11T13:23:34;25.30;91.50
25328;DHT22;13279;51.300;12.394;2022-07-11T13:26:02;25.30;92.60
25328;DHT22;13279;51.300;12.394;2022-07-11T13:28:30;25.70;91.60
25328;DHT22;13279;51.300;12.394;2022-07-11T13:30:57;26.10;90.10
25328;DHT22;13279;51.300;12.394;2022-07-11T13:33:25;26.40;89.50
25328;DHT22;13279;51.300;12.394;2022-07-11T13:35:52;26.70;87.60
25328;DHT22;13279;51.300;12.394;2022-07-11T13:38:22;26.80;87.00
25328;DHT22;13279;51.300;12.394;2022-07-11T13:40:50;27.20;86.90
25328;DHT22;13279;51.300;12.394;2022-07-11T13:43:18;26.70;85.10
25328;DHT22;13279;51.300;12.394;2022-07-11T13:45:45;26.20;86.30
25328;DHT22;13279;51.300;12.394;2022-07-11T13:48:13;25.80;87.80
25328;DHT22;13279;51.300;12.394;2022-07-11T13:50:41;26.20;89.80
25328;DHT22;13279;51.300;12.394;2022-07-11T13:53:10;26.60;86.30
25328;DHT22;13279;51.300;12.394;2022-07-11T13:55:38;27.00;83.90
25328;DHT22;13279;51.300;12.394;2022-07-11T13:58:06;26.50;83.30
25328;DHT22;13279;51.300;12.394;2022-07-11T14:00:50;26.40;84.20
25328;DHT22;13279;51.300;12.394;2022-07-11T14:03:18;26.40;82.20
25328;DHT22;13279;51.300;12.394;2022-07-11T14:05:46;26.40;80.40
25328;DHT22;13279;51.300;12.394;2022-07-11T14:08:14;26.50;78.10
25328;DHT22;13279;51.300;12.394;2022-07-11T14:10:41;26.60;76.50
25328;DHT22;13279;51.300;12.394;2022-07-11T14:13:10;26.60;76.80
25328;DHT22;13279;51.300;12.394;2022-07-11T14:15:38;25.90;77.60
25328;DHT22;13279;51.300;12.394;2022-07-11T14:18:07;25.70;79.50
25328;DHT22;13279;51.300;12.394;2022-07-11T14:20:34;25.80;80.90
25328;DHT22;13279;51.300;12.394;2022-07-11T14:23:01;26.20;80.30
25328;DHT22;13279;51.300;12.394;2022-07-11T14:25:29;26.40;78.30
25328;DHT22;13279;51.300;12.394;2022-07-11T14:27:57;26.10;79.50
25328;DHT22;13279;51.300;12.394;2022-07-11T14:30:26;25.70;78.40
25328;DHT22;13279;51.300;12.394;2022-07-11T14:32:53;25.30;80.00
25328;DHT22;13279;51.300;12.394;2022-07-11T14:35:21;25.10;79.00
25328;DHT22;13279;51.300;12.394;2022-07-11T14:37:48;24.90;80.20
25328;DHT22;13279;51.300;12.394;2022-07-11T14:40:16;25.40;79.10
25328;DHT22;13279;51.300;12.394;2022-07-11T14:42:44;25.90;79.00
25328;DHT22;13279;51.300;12.394;2022-07-11T14:45:11;26.00;78.00
25328;DHT22;13279;51.300;12.394;2022-07-11T14:47:43;26.10;78.50
25328;DHT22;13279;51.300;12.394;2022-07-11T14:50:11;26.50;76.00
25328;DHT22;13279;51.300;12.394;2022-07-11T14:52:39;26.40;77.50
25328;DHT22;13279;51.300;12.394;2022-07-11T14:55:07;26.10;75.80
25328;DHT22;13279;51.300;12.394;2022-07-11T14:57:34;25.70;77.30
25328;DHT22;13279;51.300;12.394;2022-07-11T15:00:02;25.80;76.80
25328;DHT22;13279;51.300;12.394;2022-07-11T15:02:30;26.00;77.10
25328;DHT22;13279;51.300;12.394;2022-07-11T15:05:16;26.80;78.20
25328;DHT22;13279;51.300;12.394;2022-07-11T15:07:43;27.50;75.40
25328;DHT22;13279;51.300;12.394;2022-07-11T15:10:29;28.00;71.40
25328;DHT22;13279;51.300;12.394;2022-07-11T15:13:14;27.30;71.40
25328;DHT22;13279;51.300;12.394;2022-07-11T15:15:42;26.20;73.10
25328;DHT22;13279;51.300;12.394;2022-07-11T15:18:09;25.30;75.40
25328;DHT22;13279;51.300;12.394;2022-07-11T15:20:38;24.70;77.00
25328;DHT22;13279;51.300;12.394;2022-07-11T15:23:05;24.50;76.60
25328;DHT22;13279;51.300;12.394;2022-07-11T15:25:33;24.70;77.80
25328;DHT22;13279;51.300;12.394;2022-07-11T15:28:01;24.70;78.40
25328;DHT22;13279;51.300;12.394;2022-07-11T15:30:29;24.40;77.70
25328;DHT22;13279;51.300;12.394;2022-07-11T15:32:57;24.20;79.50
25328;DHT22;13279;51.300;12.394;2022-07-11T15:35:25;23.90;79.10
25328;DHT22;13279;51.300;12.394;2022-07-11T15:37:55;23.60;80.40
25328;DHT22;13279;51.300;12.394;2022-07-11T15:40:23;23.50;81.10
25328;DHT22;13279;51.300;12.394;2022-07-11T15:42:50;23.50;81.50
25328;DHT22;13279;51.300;12.394;2022-07-11T15:45:18;24.10;81.20
25328;DHT22;13279;51.300;12.394;2022-07-11T15:47:46;24.50;78.70
25328;DHT22;13279;51.300;12.394;2022-07-11T15:50:13;24.40;79.50
25328;DHT22;13279;51.300;12.394;2022-07-11T15:52:41;24.30;80.70
25328;DHT22;13279;51.300;12.394;2022-07-11T15:55:10;24.50;79.60
25328;DHT22;13279;51.300;12.394;2022-07-11T15:57:37;24.50;79.10
25328;DHT22;13279;51.300;12.394;2022-07-11T16:00:06;24.20;77.90
25328;DHT22;13279;51.300;12.394;2022-07-11T16:02:42;24.20;79.30
25328;DHT22;13279;51.300;12.394;2022-07-11T16:05:10;24.40;78.60
25328;DHT22;13279;51.300;12.394;2022-07-11T16:07:37;24.40;78.60
25328;DHT22;13279;51.300;12.394;2022-07-11T16:10:05;24.00;80.20
25328;DHT22;13279;51.300;12.394;2022-07-11T16:12:37;23.90;80.40
25328;DHT22;13279;51.300;12.394;2022-07-11T16:15:05;23.70;81.10
25328;DHT22;13279;51.300;12.394;2022-07-11T16:17:34;23.70;80.60
25328;DHT22;13279;51.300;12.394;2022-07-11T16:20:04;23.70;80.20
25328;DHT22;13279;51.300;12.394;2022-07-11T16:22:32;23.70;80.40
25328;DHT22;13279;51.300;12.394;2022-07-11T16:25:00;23.70;81.90
25328;DHT22;13279;51.300;12.394;2022-07-11T16:27:29;23.60;81.40
25328;DHT22;13279;51.300;12.394;2022-07-11T16:29:58;23.40;82.40
25328;DHT22;13279;51.300;12.394;2022-07-11T16:32:25;23.30;82.70
25328;DHT22;13279;51.300;12.394;2022-07-11T16:34:54;23.10;82.50
25328;DHT22;13279;51.300;12.394;2022-07-11T16:37:21;23.00;83.70
25328;DHT22;13279;51.300;12.394;2022-07-11T16:39:49;22.80;83.90
25328;DHT22;13279;51.300;12.394;2022-07-11T16:42:33;22.70;83.30
25328;DHT22;13279;51.300;12.394;2022-07-11T16:45:20;22.60;83.10
25328;DHT22;13279;51.300;12.394;2022-07-11T16:47:47;22.60;85.00
25328;DHT22;13279;51.300;12.394;2022-07-11T16:50:16;22.60;85.20
25328;DHT22;13279;51.300;12.394;2022-07-11T16:52:43;22.60;84.80
25328;DHT22;13279;51.300;12.394;2022-07-11T16:55:10;22.60;84.30
25328;DHT22;13279;51.300;12.394;2022-07-11T16:57:38;22.60;84.50
25328;DHT22;13279;51.300;12.394;2022-07-11T17:00:07;22.70;85.40
25328;DHT22;13279;51.300;12.394;2022-07-11T17:02:37;22.70;83.70
25328;DHT22;13279;51.300;12.394;2022-07-11T17:05:05;22.70;82.60
25328;DHT22;13279;51.300;12.394;2022-07-11T17:07:33;22.80;86.20
25328;DHT22;13279;51.300;12.394;2022-07-11T17:10:01;22.90;82.40
25328;DHT22;13279;51.300;12.394;2022-07-11T17:12:28;22.90;81.30
25328;DHT22;13279;51.300;12.394;2022-07-11T17:14:55;22.80;81.40
25328;DHT22;13279;51.300;12.394;2022-07-11T17:17:23;22.80;81.90
25328;DHT22;13279;51.300;12.394;2022-07-11T17:19:52;22.80;81.30
25328;DHT22;13279;51.300;12.394;2022-07-11T17:22:19;22.90;81.50
25328;DHT22;13279;51.300;12.394;2022-07-11T17:24:47;22.90;82.10
25328;DHT22;13279;51.300;12.394;2022-07-11T17:27:14;22.90;81.90
25328;DHT22;13279;51.300;12.394;2022-07-11T17:29:42;22.90;81.70
25328;DHT22;13279;51.300;12.394;2022-07-11T17:32:09;22.90;83.00
25328;DHT22;13279;51.300;12.394;2022-07-11T17:34:37;22.90;82.40
25328;DHT22;13279;51.300;12.394;2022-07-11T17:37:05;22.90;83.20
25328;DHT22;13279;51.300;12.394;2022-07-11T17:39:34;22.80;82.60
25328;DHT22;13279;51.300;12.394;2022-07-11T17:42:02;22.70;82.50
25328;DHT22;13279;51.300;12.394;2022-07-11T17:44:30;22.60;83.00
25328;DHT22;13279;51.300;12.394;2022-07-11T17:46:58;22.50;83.20
25328;DHT22;13279;51.300;12.394;2022-07-11T17:49:26;22.40;83.00
25328;DHT22;13279;51.300;12.394;2022-07-11T17:51:55;22.30;83.50
25328;DHT22;13279;51.300;12.394;2022-07-11T17:54:26;22.20;84.80
25328;DHT22;13279;51.300;12.394;2022-07-11T17:56:53;22.20;84.50
25328;DHT22;13279;51.300;12.394;2022-07-11T17:59:21;22.10;85.10
25328;DHT22;13279;51.300;12.394;2022-07-11T18:01:48;22.20;85.50
25328;DHT22;13279;51.300;12.394;2022-07-11T18:04:16;22.10;85.70
25328;DHT22;13279;51.300;12.394;2022-07-11T18:06:44;22.00;85.70
25328;DHT22;13279;51.300;12.394;2022-07-11T18:09:12;22.00;86.90
25328;DHT22;13279;51.300;12.394;2022-07-11T18:11:45;22.00;88.80
25328;DHT22;13279;51.300;12.394;2022-07-11T18:14:13;22.00;86.80
25328;DHT22;13279;51.300;12.394;2022-07-11T18:16:40;22.00;87.90
25328;DHT22;13279;51.300;12.394;2022-07-11T18:19:08;22.00;89.60
25328;DHT22;13279;51.300;12.394;2022-07-11T18:21:35;21.80;88.00
25328;DHT22;13279;51.300;12.394;2022-07-11T18:24:03;21.80;88.60
25328;DHT22;13279;51.300;12.394;2022-07-11T18:26:31;21.80;89.30
25328;DHT22;13279;51.300;12.394;2022-07-11T18:29:00;21.80;90.00
25328;DHT22;13279;51.300;12.394;2022-07-11T18:31:27;21.80;89.10
25328;DHT22;13279;51.300;12.394;2022-07-11T18:33:55;21.80;89.20
25328;DHT22;13279;51.300;12.394;2022-07-11T18:36:24;21.70;89.60
25328;DHT22;13279;51.300;12.394;2022-07-11T18:38:51;21.60;87.30
25328;DHT22;13279;51.300;12.394;2022-07-11T18:41:33;21.60;87.50
25328;DHT22;13279;51.300;12.394;2022-07-11T18:44:01;21.60;87.00
25328;DHT22;13279;51.300;12.394;2022-07-11T18:46:32;21.60;87.40
25328;DHT22;13279;51.300;12.394;2022-07-11T18:49:00;21.50;87.70
25328;DHT22;13279;51.300;12.394;2022-07-11T18:51:28;21.50;88.50